Time;durP1;ratioP1;P1;durP2;ratioP2;P2;SDS_P1;SDS_P2;PMS_P1;PMS_P2;Temp;Humidity;BMP_temperature;BMP_pressure;BME280_temperature;BME280_humidity;BME280_pressure;Samples;Min_cycle;Max_cycle;Signal;HPM_P1;HPM_P2
2023/01/09 00:01:28;;;;;;;16.63;8.20;;;;;;;7.11;100.00;94762.25;4977286;28;20671;-69
2023/01/09 00:03:54;;;;;;;18.30;8.37;;;;;;;7.05;100.00;94766.47;4977198;28;20233;-68
2023/01/09 00:06:21;;;;;;;16.53;8.60;;;;;;;7.08;100.00;94760.03;4977636;28;20234;-69
2023/01/09 00:08:47;;;;;;;14.57;7.53;;;;;;;7.11;100.00;94760.44;4978189;28;20580;-69
2023/01/09 00:11:14;;;;;;;16.53;8.13;;;;;;;7.12;100.00;94753.41;4977399;28;20218;-67
2023/01/09 00:13:41;;;;;;;16.93;8.13;;;;;;;7.12;100.00;94753.41;4977348;28;20194;-68
2023/01/09 00:16:08;;;;;;;17.70;8.40;;;;;;;7.19;100.00;94743.75;4977432;28;20240;-68
2023/01/09 00:18:37;;;;;;;16.40;8.13;;;;;;;7.25;100.00;94738.56;4978014;28;20199;-68
2023/01/09 00:21:05;;;;;;;15.67;8.20;;;;;;;7.26;100.00;94734.94;4976009;28;20211;-68
2023/01/09 00:23:32;;;;;;;14.77;8.10;;;;;;;7.19;100.00;94730.66;4976641;28;20237;-68
2023/01/09 00:26:03;;;;;;;16.30;8.37;;;;;;;7.33;100.00;94723.50;4977544;28;20230;-69
2023/01/09 00:28:30;;;;;;;14.47;7.50;;;;;;;7.08;100.00;94711.06;4977682;28;20211;-69
2023/01/09 00:30:56;;;;;;;15.40;7.27;;;;;;;7.04;100.00;94707.22;4977349;28;20211;-69
2023/01/09 00:33:26;;;;;;;14.67;7.33;;;;;;;7.08;100.00;94699.78;4977462;28;20214;-69
2023/01/09 00:35:54;;;;;;;16.50;7.87;;;;;;;7.23;100.00;94700.47;4976646;28;20222;-68
2023/01/09 00:38:20;;;;;;;16.17;7.63;;;;;;;7.20;100.00;94696.41;4977267;28;20207;-68
2023/01/09 00:40:47;;;;;;;17.70;8.00;;;;;;;7.20;100.00;94690.38;4976826;28;20210;-69
2023/01/09 00:43:13;;;;;;;14.37;7.10;;;;;;;7.23;100.00;94689.97;4977095;28;20231;-68
2023/01/09 00:45:40;;;;;;;16.83;8.20;;;;;;;7.25;100.00;94693.22;4976730;28;20210;-68
2023/01/09 00:48:09;;;;;;;17.43;6.97;;;;;;;7.31;100.00;94691.44;4977419;28;20215;-69
2023/01/09 00:50:37;;;;;;;11.43;6.63;;;;;;;7.25;100.00;94698.47;4977085;28;20211;-68
2023/01/09 00:53:08;;;;;;;11.37;5.50;;;;;;;7.33;100.00;94692.06;4977315;28;20204;-68
2023/01/09 00:55:37;;;;;;;9.90;5.27;;;;;;;7.36;100.00;94691.66;4976716;28;20676;-68
2023/01/09 00:58:04;;;;;;;12.97;5.27;;;;;;;7.32;100.00;94685.19;4977933;28;20207;-68
2023/01/09 01:00:30;;;;;;;10.27;5.23;;;;;;;7.31;100.00;94677.53;4980533;28;20210;-68
2023/01/09 01:02:57;;;;;;;10.03;4.90;;;;;;;7.36;100.00;94675.94;4980588;28;20237;-68
2023/01/09 01:08:12;;;;;;;12.60;5.10;;;;;;;7.48;100.00;94663.88;4980425;28;20238;-68
2023/01/09 01:10:38;;;;;;;8.40;4.60;;;;;;;7.43;100.00;94668.94;4980532;28;20202;-68
2023/01/09 01:13:04;;;;;;;11.53;4.63;;;;;;;7.38;100.00;94658.22;4980725;28;20200;-69
2023/01/09 01:15:31;;;;;;;12.07;5.17;;;;;;;7.49;100.00;94654.25;4980342;28;20211;-68
2023/01/09 01:17:57;;;;;;;8.93;4.43;;;;;;;7.51;100.00;94653.03;4980209;28;20214;-68
2023/01/09 01:20:24;;;;;;;10.00;4.63;;;;;;;7.43;100.00;94645.34;4981384;28;20857;-68
2023/01/09 01:22:51;;;;;;;9.07;4.50;;;;;;;7.49;100.00;94649.78;4980009;28;21015;-69
2023/01/09 01:25:19;;;;;;;7.77;3.67;;;;;;;7.58;100.00;94643.38;4979265;28;20261;-69
2023/01/09 01:27:45;;;;;;;8.27;4.13;;;;;;;7.52;100.00;94644.19;4980285;28;20562;-68
2023/01/09 01:30:15;;;;;;;7.30;3.60;;;;;;;7.59;100.00;94639.75;4981059;28;20229;-69
2023/01/09 01:32:41;;;;;;;6.67;3.77;;;;;;;7.56;100.00;94650.63;4980214;28;20239;-69
2023/01/09 01:35:09;;;;;;;7.27;4.00;;;;;;;7.58;100.00;94643.38;4979307;28;20214;-69
2023/01/09 01:37:36;;;;;;;6.93;4.03;;;;;;;7.55;100.00;94654.25;4980451;28;20230;-68
2023/01/09 01:40:05;;;;;;;8.97;4.40;;;;;;;7.54;100.00;94650.00;4980467;28;20218;-68
2023/01/09 01:42:34;;;;;;;7.87;4.17;;;;;;;7.59;100.00;94638.94;4980059;28;20207;-68
2023/01/09 01:45:07;;;;;;;9.13;4.33;;;;;;;7.55;100.00;94638.53;4979884;28;20230;-69
2023/01/09 01:47:41;;;;;;;8.70;3.97;;;;;;;7.45;100.00;94643.34;4980148;28;20242;-68
2023/01/09 01:50:12;;;;;;;9.73;4.03;;;;;;;7.58;100.00;94638.13;4980078;28;20619;-68
2023/01/09 01:52:39;;;;;;;7.90;4.40;;;;;;;7.56;100.00;94639.31;4980050;28;20706;-68
2023/01/09 01:55:08;;;;;;;6.77;3.67;;;;;;;7.56;100.00;94628.84;4979148;28;20203;-68
2023/01/09 01:57:39;;;;;;;5.33;3.93;;;;;;;7.55;100.00;94629.88;4979610;28;20227;-68
2023/01/09 02:00:07;;;;;;;8.43;3.80;;;;;;;7.52;100.00;94623.22;4980075;28;20218;-68
2023/01/09 02:02:34;;;;;;;7.83;3.70;;;;;;;7.42;100.00;94617.53;4979586;28;20203;-68
2023/01/09 02:05:02;;;;;;;5.77;3.47;;;;;;;7.53;100.00;94613.53;4978892;28;20231;-68
2023/01/09 02:07:29;;;;;;;9.50;3.77;;;;;;;7.53;100.00;94600.41;4979982;28;20599;-68
2023/01/09 02:09:56;;;;;;;6.40;2.77;;;;;;;7.56;100.00;94608.72;4979839;28;20204;-68
2023/01/09 02:12:25;;;;;;;6.50;2.90;;;;;;;7.45;100.00;94605.84;4979791;28;20203;-70
2023/01/09 02:14:58;;;;;;;4.00;2.33;;;;;;;7.49;100.00;94607.88;4979094;28;20204;-68
2023/01/09 02:17:49;;;;;;;2.97;2.13;;;;;;;7.59;100.00;94608.31;4980812;28;20731;-69
2023/01/09 02:20:42;;;;;;;3.17;2.10;;;;;;;7.67;100.00;94613.34;4980057;28;20214;-69
2023/01/09 02:23:57;;;;;;;2.80;1.80;;;;;;;7.72;100.00;94612.78;4978745;28;20223;-69
2023/01/09 02:26:35;;;;;;;3.27;1.90;;;;;;;7.71;100.00;94601.47;4979056;28;20234;-69
2023/01/09 02:29:31;;;;;;;2.30;1.70;;;;;;;7.76;100.00;94604.28;4979700;28;20198;-68
2023/01/09 02:32:03;;;;;;;3.40;1.53;;;;;;;7.71;100.00;94601.47;4978176;28;20211;-68
2023/01/09 02:34:39;;;;;;;2.17;1.30;;;;;;;7.72;100.00;94605.69;4978209;28;20203;-69
2023/01/09 02:37:15;;;;;;;2.70;1.60;;;;;;;7.64;100.00;94616.38;4979195;28;20229;-68
2023/01/09 02:39:47;;;;;;;3.93;1.70;;;;;;;7.65;100.00;94602.28;4980929;28;20241;-68
2023/01/09 02:42:19;;;;;;;2.30;1.50;;;;;;;7.54;100.00;94612.53;4979537;28;20207;-68
2023/01/09 02:44:45;;;;;;;3.57;1.40;;;;;;;7.41;100.00;94615.91;4977034;28;20219;-68
2023/01/09 02:47:39;;;;;;;2.47;1.33;;;;;;;7.56;100.00;94613.13;4979192;28;20262;-68
2023/01/09 02:50:09;;;;;;;3.40;1.30;;;;;;;7.55;100.00;94622.81;4978611;28;20238;-68
2023/01/09 02:52:54;;;;;;;3.43;1.30;;;;;;;7.70;100.00;94622.63;4978410;28;20690;-68
2023/01/09 02:55:34;;;;;;;3.57;1.30;;;;;;;7.63;100.00;94609.50;4978208;28;20210;-68
2023/01/09 02:58:09;;;;;;;3.33;1.60;;;;;;;7.65;100.00;94618.00;4978816;28;20210;-68
2023/01/09 03:00:45;;;;;;;5.10;1.40;;;;;;;7.61;100.00;94629.06;4978647;28;20569;-68
2023/01/09 03:03:23;;;;;;;1.40;1.00;;;;;;;7.68;100.00;94622.03;4978803;28;21227;-68
2023/01/09 03:05:57;;;;;;;2.43;1.50;;;;;;;7.66;100.00;94630.09;4977392;28;20225;-68
2023/01/09 03:08:30;;;;;;;3.23;1.27;;;;;;;7.57;100.00;94618.16;4979175;28;20256;-68
2023/01/09 03:11:00;;;;;;;2.93;1.30;;;;;;;7.68;100.00;94612.34;4976738;28;20207;-68
2023/01/09 03:13:33;;;;;;;4.03;1.47;;;;;;;7.73;100.00;94619.63;4978414;28;20228;-68
2023/01/09 03:16:04;;;;;;;1.77;1.13;;;;;;;7.67;100.00;94620.41;4977625;28;20231;-68
2023/01/09 03:18:34;;;;;;;1.40;1.10;;;;;;;7.69;100.00;94628.88;4978844;28;20214;-68
2023/01/09 03:21:02;;;;;;;2.77;1.47;;;;;;;7.66;100.00;94629.28;4978067;28;20253;-68
2023/01/09 03:23:45;;;;;;;2.13;1.13;;;;;;;7.78;100.00;94619.81;4978058;28;20222;-68
2023/01/09 03:26:11;;;;;;;4.77;1.80;;;;;;;7.62;100.00;94634.09;4978076;28;20235;-68
2023/01/09 03:28:38;;;;;;;1.73;1.13;;;;;;;7.59;100.00;94634.50;4978900;28;20211;-68
2023/01/09 03:31:05;;;;;;;2.10;1.27;;;;;;;7.55;100.00;94638.53;4977929;28;20207;-68
2023/01/09 03:33:33;;;;;;;1.53;1.10;;;;;;;7.69;100.00;94629.69;4978158;28;20203;-68
2023/01/09 03:35:59;;;;;;;1.00;0.90;;;;;;;7.67;100.00;94639.56;4977834;28;20238;-69
2023/01/09 03:38:25;;;;;;;2.37;1.40;;;;;;;7.69;100.00;94631.50;4978216;28;20230;-68
2023/01/09 03:40:52;;;;;;;2.27;1.30;;;;;;;7.71;100.00;94643.41;4978203;28;20210;-68
2023/01/09 03:43:18;;;;;;;2.10;1.33;;;;;;;7.68;100.00;94649.03;4978539;28;20218;-68
2023/01/09 03:45:45;;;;;;;1.90;1.50;;;;;;;7.86;100.00;94656.38;4976800;28;20707;-68
2023/01/09 03:48:11;;;;;;;2.43;1.53;;;;;;;7.85;100.00;94649.50;4977465;28;20214;-68
2023/01/09 03:50:41;;;;;;;1.97;1.40;;;;;;;7.90;100.00;94661.81;4979114;28;20226;-68
2023/01/09 03:53:07;;;;;;;1.83;1.20;;;;;;;7.80;100.00;94665.81;4977984;28;20235;-68
2023/01/09 03:55:34;;;;;;;3.27;1.70;;;;;;;7.79;100.00;94669.47;4977055;28;20207;-68
2023/01/09 03:58:00;;;;;;;2.30;1.70;;;;;;;7.71;100.00;94667.00;4977554;28;20218;-68
2023/01/09 04:00:27;;;;;;;2.30;1.50;;;;;;;7.80;100.00;94672.88;4978763;28;20207;-68
2023/01/09 04:02:53;;;;;;;3.03;2.03;;;;;;;7.83;100.00;94675.91;4977303;28;20203;-68
2023/01/09 04:05:20;;;;;;;2.77;1.70;;;;;;;7.73;100.00;94690.41;4977148;28;20830;-68
2023/01/09 04:07:48;;;;;;;3.73;1.77;;;;;;;7.78;100.00;94701.09;4978090;28;20231;-68
2023/01/09 04:10:14;;;;;;;1.97;1.50;;;;;;;7.75;100.00;94701.50;4978108;28;20207;-68
2023/01/09 04:12:41;;;;;;;5.70;1.67;;;;;;;7.77;100.00;94708.16;4977544;28;20198;-68
2023/01/09 04:15:08;;;;;;;3.00;1.97;;;;;;;7.81;100.00;94714.63;4977225;28;20203;-68
2023/01/09 04:17:34;;;;;;;3.97;2.13;;;;;;;7.76;100.00;94711.78;4977526;28;20231;-68
2023/01/09 04:20:01;;;;;;;3.33;2.23;;;;;;;7.82;100.00;94713.63;4977696;28;20214;-68
2023/01/09 04:22:27;;;;;;;4.00;2.27;;;;;;;7.83;100.00;94723.13;4978584;28;20207;-68
2023/01/09 04:24:55;;;;;;;5.67;3.20;;;;;;;7.95;100.00;94730.19;4977776;28;20226;-68
2023/01/09 04:27:22;;;;;;;3.63;2.10;;;;;;;7.78;100.00;94741.25;4977476;28;20603;-68
2023/01/09 04:29:48;;;;;;;7.27;3.00;;;;;;;7.75;100.00;94754.75;4977683;28;20223;-68
2023/01/09 04:32:15;;;;;;;7.73;2.97;;;;;;;7.73;100.00;94767.25;4977752;28;20210;-68
2023/01/09 04:34:41;;;;;;;5.60;3.07;;;;;;;7.67;100.00;94769.84;4979940;28;20557;-68
2023/01/09 04:37:08;;;;;;;3.97;2.43;;;;;;;7.64;100.00;94783.34;4981295;28;20235;-68
2023/01/09 04:39:35;;;;;;;6.87;3.30;;;;;;;7.74;100.00;94789.00;4981269;28;20215;-68
2023/01/09 04:42:03;;;;;;;3.93;2.43;;;;;;;7.78;100.00;94783.19;4981365;28;20562;-68
2023/01/09 04:44:29;;;;;;;6.17;2.90;;;;;;;7.69;100.00;94791.41;4980661;28;20231;-68
2023/01/09 04:46:57;;;;;;;6.80;3.37;;;;;;;7.75;100.00;94796.72;4981210;28;20257;-68
2023/01/09 04:49:24;;;;;;;3.37;1.83;;;;;;;7.63;100.00;94807.94;4980922;28;20203;-68
2023/01/09 04:51:50;;;;;;;2.23;1.70;;;;;;;7.58;100.00;94807.69;4981880;28;20211;-69
2023/01/09 04:54:17;;;;;;;3.50;1.30;;;;;;;7.58;100.00;94802.44;4980934;28;20214;-68
2023/01/09 04:56:44;;;;;;;2.60;1.40;;;;;;;7.64;100.00;94804.31;4980888;28;20223;-68
2023/01/09 04:59:12;;;;;;;2.87;1.50;;;;;;;7.63;100.00;94808.72;4981772;28;20691;-69
2023/01/09 05:01:39;;;;;;;4.63;2.43;;;;;;;7.63;100.00;94811.34;4981912;28;20211;-68
2023/01/09 05:04:05;;;;;;;1.43;1.17;;;;;;;7.43;100.00;94784.22;4980276;28;20295;-68
2023/01/09 05:06:33;;;;;;;3.17;1.50;;;;;;;7.51;100.00;94778.00;4981174;28;20227;-68
2023/01/09 05:09:00;;;;;;;1.90;1.30;;;;;;;7.47;100.00;94810.84;4981473;28;20690;-69
2023/01/09 05:11:27;;;;;;;2.00;1.30;;;;;;;7.47;100.00;94813.47;4980250;28;20214;-68
2023/01/09 05:13:53;;;;;;;9.03;1.50;;;;;;;7.38;100.00;94820.69;4980182;28;20688;-68
2023/01/09 05:16:21;;;;;;;0.60;0.60;;;;;;;7.48;100.00;94828.19;4980440;28;20249;-68
2023/01/09 05:18:48;;;;;;;1.57;1.00;;;;;;;7.45;100.00;94837.25;4981053;28;20672;-71
2023/01/09 05:21:14;;;;;;;0.87;0.70;;;;;;;7.37;100.00;94833.97;4980137;28;20218;-70
2023/01/09 05:23:41;;;;;;;2.20;1.07;;;;;;;7.36;100.00;94837.59;4980700;28;20214;-71
2023/01/09 05:26:07;;;;;;;4.00;1.00;;;;;;;7.36;100.00;94858.56;4979913;28;20227;-71
2023/01/09 05:28:34;;;;;;;0.63;0.50;;;;;;;7.21;100.00;94863.06;4980822;28;20767;-71
2023/01/09 05:31:00;;;;;;;1.60;1.10;;;;;;;7.21;100.00;94863.06;4980358;28;20207;-70
2023/01/09 05:33:28;;;;;;;1.83;1.00;;;;;;;7.19;100.00;94883.38;4980365;28;20556;-70
2023/01/09 05:35:54;;;;;;;1.00;0.70;;;;;;;7.05;100.00;94886.91;4980032;28;20220;-71
2023/01/09 05:38:21;;;;;;;0.60;0.50;;;;;;;6.97;100.00;94894.09;4980930;28;20214;-70
2023/01/09 05:40:47;;;;;;;0.57;0.57;;;;;;;6.90;100.00;94909.72;4980023;28;20242;-71
2023/01/09 05:43:14;;;;;;;0.30;0.30;;;;;;;6.84;100.00;94909.66;4979820;28;20210;-70
2023/01/09 05:45:40;;;;;;;0.30;0.30;;;;;;;6.85;100.00;94912.09;4978738;28;20398;-70
2023/01/09 05:48:07;;;;;;;0.30;0.30;;;;;;;6.67;100.00;94926.63;4980588;28;20218;-70
2023/01/09 05:50:35;;;;;;;0.40;0.40;;;;;;;6.78;100.00;94926.09;4980111;28;20207;-71
2023/01/09 05:53:01;;;;;;;0.20;0.20;;;;;;;6.68;100.00;94922.97;4979959;28;20214;-70
2023/01/09 05:55:27;;;;;;;0.30;0.30;;;;;;;6.66;100.00;94927.59;4979510;28;21027;-71
2023/01/09 05:57:54;;;;;;;0.50;0.43;;;;;;;6.69;100.00;94922.00;4979686;28;20258;-71
2023/01/09 06:00:21;;;;;;;0.30;0.30;;;;;;;6.65;100.00;94930.41;4979917;28;20207;-71
2023/01/09 06:02:47;;;;;;;0.40;0.40;;;;;;;6.60;100.00;94928.31;4980152;28;20208;-70
2023/01/09 06:05:14;;;;;;;0.43;0.40;;;;;;;6.52;100.00;94936.28;4979120;28;20231;-71
2023/01/09 06:07:42;;;;;;;0.30;0.30;;;;;;;6.67;100.00;94940.50;4980183;28;20237;-71
2023/01/09 06:10:11;;;;;;;0.40;0.40;;;;;;;6.59;100.00;94941.59;4980354;28;20210;-71
2023/01/09 06:12:38;;;;;;;0.50;0.50;;;;;;;6.57;100.00;94964.50;4979250;28;20933;-70
2023/01/09 06:15:05;;;;;;;2.10;0.50;;;;;;;6.53;100.00;94958.03;4979322;28;20828;-71
2023/01/09 06:17:32;;;;;;;0.40;0.30;;;;;;;6.52;100.00;94957.22;4980140;28;20223;-71
2023/01/09 06:19:58;;;;;;;0.40;0.40;;;;;;;6.55;100.00;94964.69;4979795;28;20214;-70
2023/01/09 06:22:25;;;;;;;0.40;0.40;;;;;;;6.59;100.00;94963.34;4979263;28;20671;-71
2023/01/09 06:24:53;;;;;;;0.30;0.30;;;;;;;6.59;100.00;94958.09;4978632;28;20223;-71
2023/01/09 06:27:19;;;;;;;2.27;0.33;;;;;;;6.62;100.00;94963.00;4978902;28;21197;-71
2023/01/09 06:29:45;;;;;;;0.80;0.63;;;;;;;6.59;100.00;94971.19;4979839;28;20675;-71
2023/01/09 06:32:12;;;;;;;0.50;0.40;;;;;;;6.58;100.00;94976.59;4979066;28;20212;-71
2023/01/09 06:34:38;;;;;;;0.30;0.30;;;;;;;6.57;100.00;94980.22;4978690;28;20210;-71
2023/01/09 06:37:05;;;;;;;0.30;0.30;;;;;;;6.47;100.00;94979.72;4979186;28;20234;-71
2023/01/09 06:39:31;;;;;;;1.43;0.70;;;;;;;6.44;100.00;94983.50;4978887;28;20203;-71
2023/01/09 06:41:59;;;;;;;0.63;0.63;;;;;;;6.58;100.00;94993.16;4979054;28;20203;-71
2023/01/09 06:44:25;;;;;;;0.83;0.50;;;;;;;6.56;100.00;95000.34;4978137;28;20210;-71
2023/01/09 06:46:52;;;;;;;0.70;0.60;;;;;;;6.60;100.00;95001.59;4979418;28;20230;-71
2023/01/09 06:49:22;;;;;;;1.90;0.50;;;;;;;6.58;100.00;95008.84;4978652;28;20208;-71
2023/01/09 06:51:48;;;;;;;1.83;0.80;;;;;;;6.65;100.00;95014.97;4978889;28;20618;-69
2023/01/09 06:54:15;;;;;;;2.70;0.90;;;;;;;6.59;100.00;95017.50;4977591;28;20211;-68
2023/01/09 06:56:41;;;;;;;1.30;0.70;;;;;;;6.62;100.00;95020.56;4978099;28;20929;-68
2023/01/09 06:59:09;;;;;;;1.17;0.73;;;;;;;6.64;100.00;95031.66;4978352;28;20596;-68
2023/01/09 07:01:38;;;;;;;0.60;0.60;;;;;;;6.60;100.00;95026.97;4979289;28;20203;-68
2023/01/09 07:04:05;;;;;;;1.33;0.70;;;;;;;6.58;100.00;95032.41;4977470;28;20695;-68
2023/01/09 07:06:32;;;;;;;6.40;0.43;;;;;;;6.53;100.00;95032.13;4978231;28;20341;-70
2023/01/09 07:08:58;;;;;;;0.40;0.40;;;;;;;6.48;100.00;95034.47;4979270;28;20629;-70
2023/01/09 07:11:24;;;;;;;0.30;0.30;;;;;;;6.35;100.00;95052.63;4978619;28;20870;-70
2023/01/09 07:13:51;;;;;;;0.63;0.60;;;;;;;6.25;100.00;95065.13;4977334;28;20214;-70
2023/01/09 07:16:19;;;;;;;0.30;0.30;;;;;;;6.35;100.00;95064.84;4979013;28;20234;-71
2023/01/09 07:18:45;;;;;;;0.30;0.27;;;;;;;6.30;100.00;95056.72;4977650;28;20196;-71
2023/01/09 07:21:11;;;;;;;0.40;0.40;;;;;;;6.22;100.00;95060.28;4977868;28;20211;-70
2023/01/09 07:23:38;;;;;;;0.40;0.40;;;;;;;6.18;100.00;95068.63;4978358;28;20211;-70
2023/01/09 07:26:05;;;;;;;1.00;0.50;;;;;;;6.19;100.00;95065.84;4978241;28;20244;-70
2023/01/09 07:28:31;;;;;;;1.67;0.60;;;;;;;6.24;100.00;95073.16;4978466;28;20203;-70
2023/01/09 07:31:01;;;;;;;0.57;0.57;;;;;;;6.27;100.00;95088.50;4978394;28;20210;-70
2023/01/09 07:33:29;;;;;;;3.57;0.80;;;;;;;6.31;100.00;95085.34;4978380;28;20202;-70
2023/01/09 07:35:55;;;;;;;4.33;1.30;;;;;;;6.18;100.00;95084.34;4977471;28;20230;-71
2023/01/09 07:38:22;;;;;;;3.07;0.60;;;;;;;6.20;100.00;95093.63;4978432;28;20206;-70
2023/01/09 07:40:48;;;;;;;1.27;0.80;;;;;;;6.08;100.00;95084.59;4978307;28;20199;-70
2023/01/09 07:43:14;;;;;;;2.93;0.60;;;;;;;6.11;100.00;95086.03;4977976;28;20214;-71
2023/01/09 07:45:41;;;;;;;1.27;0.77;;;;;;;6.07;100.00;95088.19;4977538;28;20237;-70
2023/01/09 07:48:07;;;;;;;2.83;0.80;;;;;;;6.05;100.00;95082.31;4978223;28;20306;-70
2023/01/09 07:50:35;;;;;;;3.03;0.77;;;;;;;6.17;100.00;95083.53;4978201;28;20259;-71
2023/01/09 07:53:02;;;;;;;0.57;0.30;;;;;;;6.14;100.00;95088.28;4977892;28;20991;-70
2023/01/09 07:55:28;;;;;;;0.77;0.63;;;;;;;6.00;100.00;95096.13;4976622;28;20680;-70
2023/01/09 07:57:55;;;;;;;1.00;0.60;;;;;;;6.09;100.00;95091.44;4977792;28;20207;-70
2023/01/09 08:00:22;;;;;;;0.83;0.60;;;;;;;6.07;100.00;95082.13;4978194;28;20218;-71
2023/01/09 08:02:51;;;;;;;1.93;0.80;;;;;;;6.07;100.00;95082.97;4977447;28;20206;-70
2023/01/09 08:05:18;;;;;;;4.10;0.90;;;;;;;6.08;100.00;95079.38;4977112;28;21103;-71
2023/01/09 08:07:45;;;;;;;1.50;0.80;;;;;;;6.13;100.00;95082.22;4979702;28;20223;-71
2023/01/09 08:10:12;;;;;;;4.53;1.70;;;;;;;6.10;100.00;95085.22;4982386;28;20210;-71
2023/01/09 08:12:43;;;;;;;2.87;1.50;;;;;;;6.10;100.00;95095.66;4981880;28;20236;-71
2023/01/09 08:15:10;;;;;;;0.70;0.70;;;;;;;5.93;100.00;95095.19;4980864;28;20234;-70
2023/01/09 08:17:37;;;;;;;1.33;0.87;;;;;;;5.95;100.00;95094.03;4981572;28;20227;-70
2023/01/09 08:20:04;;;;;;;1.73;0.90;;;;;;;5.82;100.00;95082.56;4982211;28;20203;-71
2023/01/09 08:22:30;;;;;;;1.23;0.77;;;;;;;5.97;100.00;95102.50;4981542;28;20321;-70
2023/01/09 08:24:58;;;;;;;3.27;1.30;;;;;;;5.88;100.00;95098.34;4981070;28;20230;-70
2023/01/09 08:27:24;;;;;;;3.87;1.73;;;;;;;5.88;100.00;95097.50;4982361;28;20258;-70
2023/01/09 08:29:51;;;;;;;0.83;0.50;;;;;;;5.92;100.00;95104.00;4981917;28;20226;-71
2023/01/09 08:32:17;;;;;;;0.80;0.53;;;;;;;5.91;100.00;95112.88;4981004;28;20211;-70
2023/01/09 08:34:44;;;;;;;1.07;0.67;;;;;;;5.93;100.00;95118.72;4981617;28;20209;-70
2023/01/09 08:37:10;;;;;;;0.87;0.60;;;;;;;5.89;100.00;95113.00;4981449;28;20238;-70
2023/01/09 08:39:37;;;;;;;0.60;0.60;;;;;;;5.98;100.00;95116.38;4981747;28;20207;-71
2023/01/09 08:47:33;;;;;;;3.00;0.77;;;;;;;6.08;100.00;95121.22;4981541;28;20237;-71
2023/01/09 08:50:00;;;;;;;0.70;0.60;;;;;;;6.16;100.00;95121.13;4982549;28;20203;-71
2023/01/09 08:52:29;;;;;;;1.63;0.80;;;;;;;6.19;100.00;95109.50;4980924;28;20211;-71
2023/01/09 08:54:55;;;;;;;0.47;0.40;;;;;;;6.13;100.00;95115.44;4980782;28;20636;-71
2023/01/09 08:57:23;;;;;;;0.60;0.60;;;;;;;6.24;100.00;95118.44;4981374;28;20543;-69
2023/01/09 08:59:50;;;;;;;1.53;0.90;;;;;;;6.27;100.00;95120.69;4981618;28;20694;-69
2023/01/09 09:02:16;;;;;;;0.60;0.53;;;;;;;6.31;100.00;95116.75;4980575;28;20214;-69
2023/01/09 09:04:43;;;;;;;1.33;0.60;;;;;;;6.28;100.00;95124.94;4980280;28;20206;-69
2023/01/09 09:07:09;;;;;;;1.43;0.63;;;;;;;6.15;100.00;95126.53;4980617;28;20640;-69
2023/01/09 09:09:36;;;;;;;0.90;0.70;;;;;;;6.27;100.00;95125.13;4981102;28;20597;-70
2023/01/09 09:12:02;;;;;;;0.80;0.60;;;;;;;6.21;100.00;95124.03;4981463;28;20211;-70
2023/01/09 09:17:14;;;;;;;1.43;0.60;;;;;;;6.34;100.00;95126.00;4981143;28;20251;-70
2023/01/09 09:19:41;;;;;;;1.13;0.60;;;;;;;6.40;100.00;95120.06;4980375;28;20215;-70
2023/01/09 09:22:08;;;;;;;5.60;0.73;;;;;;;6.42;99.67;95113.69;4981156;28;20663;-70
2023/01/09 09:24:34;;;;;;;1.47;0.60;;;;;;;6.38;100.00;95115.03;4979035;28;20207;-70
2023/01/09 09:27:00;;;;;;;2.10;0.50;;;;;;;6.37;99.22;95118.63;4980379;28;20250;-70
2023/01/09 09:29:27;;;;;;;2.40;0.73;;;;;;;6.54;99.49;95122.69;4980359;28;20500;-69
2023/01/09 09:31:55;;;;;;;0.40;0.40;;;;;;;6.63;98.00;95129.47;4980447;28;20210;-70
2023/01/09 09:34:22;;;;;;;0.67;0.60;;;;;;;6.58;98.11;95131.84;4979792;28;20214;-70
2023/01/09 09:36:49;;;;;;;1.13;0.60;;;;;;;6.58;99.36;95126.59;4981234;28;20580;-70
2023/01/09 09:39:15;;;;;;;1.33;1.07;;;;;;;6.63;99.46;95133.91;4980169;28;20203;-70
2023/01/09 09:45:15;;;;;;;3.93;1.33;;;;;;;6.98;97.86;95131.38;4980488;28;20218;-70
2023/01/09 09:47:52;;;;;;;1.43;0.90;;;;;;;7.22;98.23;95123.19;4980693;28;20230;-70
2023/01/09 09:50:49;;;;;;;2.60;0.97;;;;;;;7.21;97.43;95111.94;4979881;28;20237;-70
2023/01/09 09:53:21;;;;;;;2.27;0.77;;;;;;;6.95;98.05;95111.59;4980899;28;20203;-70
2023/01/09 09:55:49;;;;;;;2.13;0.67;;;;;;;6.98;98.81;95113.06;4979654;28;20210;-70
2023/01/09 09:58:20;;;;;;;1.03;0.50;;;;;;;7.09;99.87;95117.81;4980836;28;20200;-70
2023/01/09 10:00:47;;;;;;;1.60;0.40;;;;;;;7.11;98.19;95121.06;4980253;28;20203;-70
2023/01/09 10:03:26;;;;;;;4.53;0.60;;;;;;;7.13;99.03;95111.22;4980004;28;20207;-70
2023/01/09 10:05:54;;;;;;;1.80;1.00;;;;;;;7.31;97.97;95113.25;4979064;28;20312;-70
2023/01/09 10:08:34;;;;;;;4.70;0.83;;;;;;;7.20;98.16;95114.72;4979888;28;20632;-70
2023/01/09 10:11:01;;;;;;;3.30;0.93;;;;;;;7.01;98.63;95112.69;4979500;28;20203;-70
2023/01/09 10:16:28;;;;;;;1.30;0.53;;;;;;;7.09;99.72;95117.81;4979966;28;20253;-70
2023/01/09 10:19:07;;;;;;;0.37;0.37;;;;;;;6.84;99.65;95111.25;4979488;28;20211;-70
2023/01/09 10:21:43;;;;;;;2.20;0.87;;;;;;;6.92;100.00;95121.63;4979835;28;20214;-70
2023/01/09 10:24:27;;;;;;;1.47;0.83;;;;;;;6.99;98.94;95119.91;4979705;28;20206;-70
2023/01/09 10:26:53;;;;;;;5.43;0.90;;;;;;;6.94;99.79;95109.19;4979564;28;20230;-70
2023/01/09 10:29:36;;;;;;;1.70;1.30;;;;;;;7.02;99.24;95112.50;4979803;28;20238;-70
2023/01/09 10:32:26;;;;;;;2.07;0.60;;;;;;;7.23;99.47;95109.94;4979341;28;20563;-70
2023/01/09 10:35:06;;;;;;;0.50;0.50;;;;;;;7.10;97.31;95115.00;4972995;28;20207;-70
2023/01/09 10:37:37;;;;;;;0.67;0.47;;;;;;;7.28;97.11;95111.00;4979640;28;20652;-70
2023/01/09 10:40:14;;;;;;;2.70;0.93;;;;;;;7.35;95.78;95113.69;4979175;28;20210;-70
2023/01/09 10:42:46;;;;;;;4.73;0.80;;;;;;;7.28;97.63;95111.00;4979532;28;20217;-70
2023/01/09 10:45:19;;;;;;;0.70;0.70;;;;;;;7.53;96.85;95112.28;4977617;28;20615;-70
2023/01/09 10:47:45;;;;;;;1.47;0.63;;;;;;;7.26;96.87;95114.00;4978824;28;20230;-70
2023/01/09 10:50:20;;;;;;;1.37;0.90;;;;;;;7.41;96.03;95102.50;4979445;28;20568;-70
2023/01/09 10:52:50;;;;;;;2.27;0.40;;;;;;;7.33;95.77;95100.78;4978848;28;20206;-70
2023/01/09 10:55:19;;;;;;;1.00;0.60;;;;;;;7.37;95.49;95102.03;4978392;28;20253;-70
2023/01/09 10:57:49;;;;;;;0.93;0.50;;;;;;;7.19;95.09;95087.72;4978738;28;20313;-70
2023/01/09 11:00:19;;;;;;;1.03;0.53;;;;;;;7.22;95.35;95089.97;4979637;28;20203;-70
2023/01/09 11:02:46;;;;;;;0.47;0.47;;;;;;;7.28;94.34;95089.25;4978576;28;20203;-70
2023/01/09 11:05:16;;;;;;;2.83;0.93;;;;;;;7.41;94.48;95092.81;4978131;28;20258;-70
2023/01/09 11:07:47;;;;;;;1.83;0.63;;;;;;;7.57;93.69;95086.53;4978565;28;20233;-70
2023/01/09 11:10:15;;;;;;;4.63;0.70;;;;;;;7.73;94.20;95097.59;4979177;28;20679;-70
2023/01/09 11:12:42;;;;;;;2.73;0.80;;;;;;;7.57;92.23;95102.25;4977840;28;20207;-70
2023/01/09 11:15:27;;;;;;;1.47;0.50;;;;;;;7.60;91.27;95092.22;4977801;28;20215;-70
2023/01/09 11:17:58;;;;;;;1.90;0.77;;;;;;;7.65;91.77;95107.38;4978168;28;20291;-70
2023/01/09 11:20:27;;;;;;;3.33;0.63;;;;;;;7.66;91.39;95106.38;4978481;28;20214;-70
2023/01/09 11:22:56;;;;;;;1.20;0.73;;;;;;;7.68;89.69;95109.63;4978002;28;20206;-70
2023/01/09 11:25:25;;;;;;;10.00;0.80;;;;;;;7.73;89.87;95113.31;4977273;28;20215;-70
2023/01/09 11:28:07;;;;;;;6.93;1.30;;;;;;;7.85;90.91;95117.03;4977948;28;20612;-70
2023/01/09 11:30:35;;;;;;;4.43;1.00;;;;;;;7.81;90.31;95126.28;4977997;28;20689;-70
2023/01/09 11:33:14;;;;;;;1.47;0.90;;;;;;;7.86;90.61;95118.69;4977966;28;20290;-71
2023/01/09 11:35:55;;;;;;;4.10;1.10;;;;;;;7.85;89.48;95117.03;4977548;28;20727;-70
2023/01/09 11:38:23;;;;;;;3.77;1.50;;;;;;;7.86;88.86;95113.44;4977874;28;20690;-70
2023/01/09 11:40:51;;;;;;;1.80;0.93;;;;;;;7.84;90.00;95109.38;4978281;28;20731;-70
2023/01/09 11:43:29;;;;;;;0.90;0.80;;;;;;;8.01;89.61;95104.50;4977521;28;20595;-70
2023/01/09 11:45:57;;;;;;;1.90;0.80;;;;;;;8.02;88.70;95102.69;4977563;28;20329;-70
2023/01/09 11:48:31;;;;;;;7.00;0.70;;;;;;;8.26;87.23;95105.75;4978243;28;20714;-70
2023/01/09 11:50:59;;;;;;;1.90;0.60;;;;;;;8.29;86.36;95104.56;4977941;28;20675;-70
2023/01/09 11:53:27;;;;;;;0.70;0.60;;;;;;;8.25;86.05;95103.28;4977372;28;20573;-70
2023/01/09 11:55:58;;;;;;;1.90;0.70;;;;;;;8.17;86.57;95098.19;4977566;28;20230;-70
2023/01/09 11:58:25;;;;;;;6.50;1.13;;;;;;;8.11;86.07;95096.31;4977734;28;20625;-70
2023/01/09 12:01:02;;;;;;;1.13;0.50;;;;;;;8.36;86.30;95090.47;4977781;28;20214;-70